Terminal Aerodrome Forecast
Issued by NWS

Home | Current Version | Previous Version | Text Only | Print | Product List | Glossary On
Versions: 1 2 3 4 5 6 7 8 9 10 11 12 13 14 15 16 17 18 19 20 21 22 23 24 25 26 27 28 29 30
784
FTUS41 KOKX 231721
TAFGON
TAF
KGON 231721Z 2318/2418 31009KT P6SM SCT050
     FM232100 27009KT P6SM SCT250
     FM240100 30005KT P6SM SKC
     FM240500 35005KT P6SM SKC
     FM241600 30008KT P6SM SCT250=

USA.gov is the U.S. government's official web portal to all federal, state and local government web resources and services.